createdAt,value
2023-03-11T00:02:21.126Z,100965.44
2023-03-11T00:04:47.630Z,100966.84
2023-03-11T00:07:14.074Z,100967.31
2023-03-11T00:09:40.660Z,100971.47
2023-03-11T00:12:07.673Z,100979.44
2023-03-11T00:14:34.158Z,100988.09
2023-03-11T00:17:00.661Z,100989.97
2023-03-11T00:19:27.135Z,100981.56
2023-03-11T00:21:53.595Z,100997.00
2023-03-11T00:24:20.056Z,100989.88
2023-03-11T00:26:46.519Z,100998.41
2023-03-11T00:29:13.414Z,101002.56
2023-03-11T00:31:39.843Z,100993.06
2023-03-11T00:34:06.387Z,100997.25
2023-03-11T00:36:36.421Z,100987.50
2023-03-11T00:39:06.645Z,101005.06
2023-03-11T00:41:36.230Z,101005.19
2023-03-11T00:44:03.166Z,101016.09
2023-03-11T00:46:31.118Z,101020.38
2023-03-11T00:48:57.830Z,101023.84
2023-03-11T00:51:24.372Z,101021.94
2023-03-11T00:53:50.812Z,101024.41
2023-03-11T00:56:17.294Z,101031.22
2023-03-11T00:58:45.469Z,101034.53
2023-03-11T01:01:18.064Z,101035.47
2023-03-11T01:03:44.981Z,101030.50
2023-03-11T01:06:12.060Z,101034.63
2023-03-11T01:08:39.099Z,101044.03
2023-03-11T01:11:06.585Z,101040.56
2023-03-11T01:13:34.167Z,101040.25
2023-03-11T01:16:01.235Z,101044.50
2023-03-11T01:18:27.879Z,101050.69
2023-03-11T01:20:55.115Z,101049.25
2023-03-11T01:23:21.758Z,101051.72
2023-03-11T01:25:48.416Z,101052.81
2023-03-11T01:28:14.952Z,101054.72
2023-03-11T01:30:42.497Z,101057.91
2023-03-11T01:33:14.765Z,101059.00
2023-03-11T01:35:42.278Z,101072.63
2023-03-11T01:38:09.089Z,101061.59
2023-03-11T01:40:44.322Z,101069.31
2023-03-11T01:43:39.646Z,101064.94
2023-03-11T01:46:20.182Z,101075.47
2023-03-11T01:49:05.979Z,101074.66
2023-03-11T01:51:45.913Z,101069.53
2023-03-11T01:54:16.688Z,101057.56
2023-03-11T01:56:44.576Z,101061.13
2023-03-11T01:59:16.149Z,101058.28
2023-03-11T02:01:52.251Z,101068.72
2023-03-11T02:04:20.010Z,101064.66
2023-03-11T02:06:46.743Z,101067.28
2023-03-11T02:09:13.277Z,101070.72
2023-03-11T02:11:39.775Z,101076.78
2023-03-11T02:14:09.454Z,101068.94
2023-03-11T02:16:36.514Z,101076.78
2023-03-11T02:19:15.496Z,101077.97
2023-03-11T02:21:42.082Z,101077.25
2023-03-11T02:24:19.618Z,101079.00
2023-03-11T02:27:08.069Z,101090.28
2023-03-11T02:29:34.822Z,101079.13
2023-03-11T02:32:04.733Z,101086.03
2023-03-11T02:34:33.838Z,101091.47
2023-03-11T02:37:01.413Z,101087.06
2023-03-11T02:39:33.231Z,101075.81
2023-03-11T02:42:02.271Z,101094.56
2023-03-11T02:44:29.399Z,101090.53
2023-03-11T02:46:56.383Z,101074.97
2023-03-11T02:49:23.437Z,101081.97
2023-03-11T02:51:49.959Z,101081.13
2023-03-11T02:54:16.436Z,101072.72
2023-03-11T02:56:42.879Z,101084.81
2023-03-11T02:59:09.378Z,101084.19
2023-03-11T03:01:35.899Z,101092.16
2023-03-11T03:04:02.461Z,101085.00
2023-03-11T03:06:28.896Z,101092.13
2023-03-11T03:08:55.886Z,101106.34
2023-03-11T03:11:22.370Z,101098.00
2023-03-11T03:13:48.836Z,101093.00
2023-03-11T03:16:15.536Z,101102.94
2023-03-11T03:18:42.082Z,101106.72
2023-03-11T03:21:08.820Z,101114.78
2023-03-11T03:23:37.677Z,101115.94
2023-03-11T03:26:07.245Z,101117.09
2023-03-11T03:28:33.725Z,101116.72
2023-03-11T03:31:05.163Z,101124.56
2023-03-11T03:33:32.261Z,101130.81
2023-03-11T03:35:58.766Z,101127.91
2023-03-11T03:38:25.313Z,101128.84
2023-03-11T03:40:51.865Z,101135.56
2023-03-11T03:43:18.384Z,101141.50
2023-03-11T03:45:44.888Z,101147.03
2023-03-11T03:48:11.365Z,101154.84
2023-03-11T03:50:39.709Z,101150.78
2023-03-11T03:53:06.277Z,101156.00
2023-03-11T03:55:32.722Z,101158.00
2023-03-11T03:57:59.212Z,101150.50
2023-03-11T04:00:25.788Z,101168.53
2023-03-11T04:02:52.231Z,101167.72
2023-03-11T04:05:18.914Z,101165.19
2023-03-11T04:07:45.399Z,101169.59
2023-03-11T04:10:13.879Z,101170.41
2023-03-11T04:12:40.337Z,101182.50
2023-03-11T04:15:07.452Z,101186.06
2023-03-11T04:17:33.877Z,101179.38
2023-03-11T04:20:00.338Z,101176.78
2023-03-11T04:22:26.812Z,101182.72
2023-03-11T04:24:53.301Z,101184.81
2023-03-11T04:27:19.759Z,101189.81
2023-03-11T04:29:46.261Z,101186.47
2023-03-11T04:32:12.882Z,101173.88
2023-03-11T04:34:39.405Z,101186.91
2023-03-11T04:37:05.845Z,101187.84
2023-03-11T04:39:32.352Z,101194.53
2023-03-11T04:41:58.845Z,101187.13
2023-03-11T04:44:25.636Z,101194.09
2023-03-11T04:46:52.165Z,101203.59
2023-03-11T04:49:18.635Z,101203.06
2023-03-11T04:51:45.122Z,101191.91
2023-03-11T04:54:11.745Z,101210.78
2023-03-11T04:56:38.213Z,101211.09
2023-03-11T04:59:04.732Z,101209.84
2023-03-11T05:01:31.320Z,101214.09
2023-03-11T05:03:57.805Z,101213.50
2023-03-11T05:06:24.308Z,101211.38
2023-03-11T05:08:50.756Z,101212.25
2023-03-11T05:11:17.200Z,101204.53
2023-03-11T05:13:43.656Z,101206.28
2023-03-11T05:16:10.139Z,101211.72
2023-03-11T05:18:36.688Z,101200.34
2023-03-11T05:21:03.455Z,101202.50
2023-03-11T05:23:29.899Z,101206.91
2023-03-11T05:25:56.468Z,101206.06
2023-03-11T05:28:22.897Z,101216.59
2023-03-11T05:30:50.231Z,101229.69
2023-03-11T05:33:16.728Z,101221.34
2023-03-11T05:35:43.353Z,101229.75
2023-03-11T05:38:09.940Z,101234.88
2023-03-11T05:40:36.521Z,101229.53
2023-03-11T05:43:03.527Z,101238.22
2023-03-11T05:45:29.997Z,101237.66
2023-03-11T05:47:56.501Z,101245.38
2023-03-11T05:50:22.973Z,101242.88
2023-03-11T05:52:49.460Z,101253.91
2023-03-11T05:55:16.012Z,101259.97
2023-03-11T05:57:42.469Z,101245.69
2023-03-11T06:00:12.671Z,101252.56
2023-03-11T06:02:41.314Z,101250.97
2023-03-11T06:05:09.624Z,101257.22
2023-03-11T06:07:37.164Z,101265.84
2023-03-11T06:10:04.858Z,101265.97
2023-03-11T06:12:34.532Z,101266.59
2023-03-11T06:15:01.036Z,101269.09
2023-03-11T06:17:30.222Z,101268.19
2023-03-11T06:19:56.991Z,101278.06
2023-03-11T06:22:23.494Z,101271.31
2023-03-11T06:24:50.462Z,101273.72
2023-03-11T06:27:17.007Z,101283.41
2023-03-11T06:29:43.468Z,101284.34
2023-03-11T06:32:10.016Z,101293.69
2023-03-11T06:34:37.546Z,101295.84
2023-03-11T06:37:04.131Z,101307.91
2023-03-11T06:39:30.662Z,101302.72
2023-03-11T06:41:57.202Z,101306.59
2023-03-11T06:44:23.770Z,101308.06
2023-03-11T06:46:50.294Z,101300.88
2023-03-11T06:49:16.769Z,101303.19
2023-03-11T06:51:43.295Z,101299.34
2023-03-11T06:54:10.289Z,101295.72
2023-03-11T06:56:37.763Z,101308.84
2023-03-11T06:59:04.252Z,101306.22
2023-03-11T07:01:30.762Z,101310.22
2023-03-11T07:03:57.332Z,101304.38
2023-03-11T07:06:25.962Z,101321.47
2023-03-11T07:08:53.359Z,101317.38
2023-03-11T07:11:22.547Z,101339.72
2023-03-11T07:13:49.391Z,101337.84
2023-03-11T07:16:20.732Z,101337.63
2023-03-11T07:18:49.695Z,101337.22
2023-03-11T07:21:18.930Z,101351.53
2023-03-11T07:23:45.931Z,101336.00
2023-03-11T07:26:14.460Z,101342.91
2023-03-11T07:28:41.828Z,101342.50
2023-03-11T07:31:10.214Z,101354.19
2023-03-11T07:33:36.855Z,101358.91
2023-03-11T07:36:12.541Z,101359.22
2023-03-11T07:38:40.979Z,101362.16
2023-03-11T07:41:08.643Z,101360.06
2023-03-11T07:43:35.138Z,101351.59
2023-03-11T07:46:11.227Z,101355.13
2023-03-11T07:48:40.058Z,101345.00
2023-03-11T07:51:18.141Z,101357.94
2023-03-11T07:53:45.039Z,101355.63
2023-03-11T07:56:12.918Z,101360.94
2023-03-11T07:58:40.078Z,101372.91
2023-03-11T08:01:10.292Z,101368.47
2023-03-11T08:03:37.576Z,101369.59
2023-03-11T08:06:18.998Z,101380.97
2023-03-11T08:08:45.982Z,101372.53
2023-03-11T08:11:13.294Z,101389.00
2023-03-11T08:13:40.686Z,101377.06
2023-03-11T08:16:08.780Z,101380.53
2023-03-11T08:18:35.619Z,101388.44
2023-03-11T08:21:07.499Z,101379.78
2023-03-11T08:23:34.893Z,101373.03
2023-03-11T08:26:09.953Z,101381.75
2023-03-11T08:28:36.843Z,101393.09
2023-03-11T08:31:11.443Z,101385.59
2023-03-11T08:33:38.033Z,101391.56
2023-03-11T08:36:04.879Z,101392.53
2023-03-11T08:38:31.618Z,101389.91
2023-03-11T08:40:58.084Z,101392.19
2023-03-11T08:43:24.557Z,101389.91
2023-03-11T08:45:51.203Z,101389.31
2023-03-11T08:48:17.866Z,101400.50
2023-03-11T08:50:53.780Z,101400.63
2023-03-11T08:53:22.307Z,101392.16
2023-03-11T08:55:50.262Z,101402.50
2023-03-11T08:58:16.926Z,101405.91
2023-03-11T09:00:43.451Z,101398.88
2023-03-11T09:03:10.071Z,101413.13
2023-03-11T09:05:36.995Z,101417.63
2023-03-11T09:08:05.705Z,101422.53
2023-03-11T09:10:32.846Z,101417.88
2023-03-11T09:12:59.301Z,101417.56
2023-03-11T09:15:25.901Z,101408.03
2023-03-11T09:17:52.994Z,101424.47
2023-03-11T09:20:20.001Z,101431.66
2023-03-11T09:22:46.711Z,101430.50
2023-03-11T09:25:13.898Z,101441.78
2023-03-11T09:27:41.455Z,101442.13
2023-03-11T09:30:09.373Z,101434.09
2023-03-11T09:32:35.917Z,101427.63
2023-03-11T09:35:02.653Z,101415.06
2023-03-11T09:37:30.220Z,101425.56
2023-03-11T09:39:56.686Z,101429.16
2023-03-11T09:42:34.430Z,101423.69
2023-03-11T09:45:24.675Z,101421.41
2023-03-11T09:48:26.624Z,101419.31
2023-03-11T09:51:02.827Z,101429.75
2023-03-11T09:53:31.656Z,101438.25
2023-03-11T09:56:07.108Z,101437.72
2023-03-11T09:58:52.732Z,101427.75
2023-03-11T10:01:37.550Z,101437.22
2023-03-11T10:04:27.828Z,101431.22
2023-03-11T10:06:55.108Z,101428.28
2023-03-11T10:09:39.665Z,101433.28
2023-03-11T10:12:47.517Z,101440.50
2023-03-11T10:16:04.131Z,101432.59
2023-03-11T10:18:38.684Z,101445.88
2023-03-11T10:21:11.739Z,101445.75
2023-03-11T10:24:15.862Z,101444.38
2023-03-11T10:26:50.353Z,101443.69
2023-03-11T10:29:23.723Z,101447.00
2023-03-11T10:32:23.143Z,101446.06
2023-03-11T10:35:20.872Z,101435.53
2023-03-11T10:37:57.909Z,101427.78
2023-03-11T10:40:34.653Z,101438.84
2023-03-11T10:43:04.726Z,101440.38
2023-03-11T10:45:38.625Z,101437.47
2023-03-11T10:48:10.677Z,101439.94
2023-03-11T10:50:38.474Z,101448.28
2023-03-11T10:53:13.229Z,101436.91
2023-03-11T10:55:52.180Z,101438.97
2023-03-11T10:58:27.637Z,101436.34
2023-03-11T11:01:13.828Z,101431.19
2023-03-11T11:03:46.682Z,101442.31
2023-03-11T11:06:26.587Z,101431.06
2023-03-11T11:09:16.811Z,101443.94
2023-03-11T11:12:01.486Z,101448.75
2023-03-11T11:14:42.738Z,101450.59
2023-03-11T11:17:22.437Z,101438.81
2023-03-11T11:19:50.048Z,101454.47
2023-03-11T11:22:20.103Z,101445.81
2023-03-11T11:24:48.638Z,101443.38
2023-03-11T11:27:26.971Z,101449.44
2023-03-11T11:30:15.903Z,101453.63
2023-03-11T11:32:42.928Z,101437.59
2023-03-11T11:35:17.191Z,101441.38
2023-03-11T11:37:47.316Z,101435.41
2023-03-11T11:40:21.679Z,101448.66
2023-03-11T11:42:56.373Z,101448.25
2023-03-11T11:45:42.901Z,101444.84
2023-03-11T11:48:22.726Z,101441.22
2023-03-11T11:50:53.878Z,101445.75
2023-03-11T11:53:49.787Z,101442.44
2023-03-11T11:56:16.305Z,101444.56
2023-03-11T11:58:42.758Z,101445.47
2023-03-11T12:01:19.582Z,101447.53
2023-03-11T12:03:57.919Z,101456.09
2023-03-11T12:06:58.235Z,101441.53
2023-03-11T12:09:27.671Z,101451.47
2023-03-11T12:12:32.907Z,101451.84
2023-03-11T12:15:07.348Z,101444.28
2023-03-11T12:17:38.034Z,101444.91
2023-03-11T12:20:15.580Z,101441.06
2023-03-11T12:23:03.658Z,101433.13
2023-03-11T12:25:48.988Z,101423.41
2023-03-11T12:28:37.864Z,101427.22
2023-03-11T12:31:10.268Z,101423.59
2023-03-11T12:33:44.094Z,101424.19
2023-03-11T12:36:34.846Z,101422.00
2023-03-11T12:39:05.993Z,101419.97
2023-03-11T12:41:42.079Z,101424.75
2023-03-11T12:44:31.344Z,101421.13
2023-03-11T12:46:57.928Z,101429.41
2023-03-11T12:49:26.669Z,101414.94
2023-03-11T12:52:03.425Z,101428.31
2023-03-11T12:54:31.697Z,101419.38
2023-03-11T12:57:02.792Z,101420.97
2023-03-11T12:59:38.452Z,101425.66
2023-03-11T13:02:29.735Z,101432.38
2023-03-11T13:05:14.647Z,101432.38
2023-03-11T13:08:11.711Z,101425.81
2023-03-11T13:10:43.272Z,101426.69
2023-03-11T13:13:24.757Z,101419.47
2023-03-11T13:15:52.921Z,101420.00
2023-03-11T13:18:33.046Z,101414.41
2023-03-11T13:21:04.109Z,101424.16
2023-03-11T13:23:40.547Z,101422.19
2023-03-11T13:26:20.363Z,101424.38
2023-03-11T13:29:05.231Z,101410.91
2023-03-11T13:32:11.448Z,101419.75
2023-03-11T13:34:54.182Z,101408.88
2023-03-11T13:38:04.426Z,101418.53
2023-03-11T13:40:34.080Z,101410.00
2023-03-11T13:43:04.701Z,101413.69
2023-03-11T13:45:36.513Z,101405.63
2023-03-11T13:48:28.909Z,101414.34
2023-03-11T13:51:00.502Z,101415.63
2023-03-11T13:53:34.679Z,101408.44
2023-03-11T13:56:01.235Z,101410.88
2023-03-11T13:58:28.608Z,101415.91
2023-03-11T14:01:00.469Z,101409.38
2023-03-11T14:03:32.871Z,101423.78
2023-03-11T14:06:03.555Z,101421.09
2023-03-11T14:08:35.754Z,101418.91
2023-03-11T14:11:04.074Z,101414.91
2023-03-11T14:13:32.696Z,101420.38
2023-03-11T14:16:02.041Z,101421.78
2023-03-11T14:18:33.169Z,101430.84
2023-03-11T14:21:00.885Z,101440.16
2023-03-11T14:23:49.972Z,101427.34
2023-03-11T14:26:22.942Z,101434.22
2023-03-11T14:28:55.065Z,101445.38
2023-03-11T14:31:23.297Z,101433.03
2023-03-11T14:34:16.958Z,101438.78
2023-03-11T14:36:48.366Z,101448.19
2023-03-11T14:39:34.214Z,101450.91
2023-03-11T14:42:19.288Z,101449.97
2023-03-11T14:45:07.805Z,101445.25
2023-03-11T14:47:43.250Z,101447.84
2023-03-11T14:50:17.307Z,101440.97
2023-03-11T14:52:50.138Z,101442.31
2023-03-11T14:55:41.083Z,101440.66
2023-03-11T14:58:26.366Z,101437.44
2023-03-11T15:00:57.669Z,101431.94
2023-03-11T15:03:31.706Z,101423.66
2023-03-11T15:06:04.119Z,101422.63
2023-03-11T15:08:45.712Z,101442.53
2023-03-11T15:11:12.098Z,101442.91
2023-03-11T15:13:41.387Z,101435.69
2023-03-11T15:16:35.138Z,101433.97
2023-03-11T15:19:27.472Z,101435.25
2023-03-11T15:21:58.454Z,101442.22
2023-03-11T15:24:31.487Z,101428.03
2023-03-11T15:27:29.502Z,101420.34
2023-03-11T15:29:56.913Z,101416.22
2023-03-11T15:32:29.515Z,101415.47
2023-03-11T15:35:01.419Z,101411.69
2023-03-11T15:37:27.972Z,101419.97
2023-03-11T15:39:58.154Z,101420.25
2023-03-11T15:42:26.634Z,101420.34
2023-03-11T15:45:13.119Z,101424.97
2023-03-11T15:47:40.058Z,101423.97
2023-03-11T15:50:24.796Z,101424.16
2023-03-11T15:52:53.243Z,101423.22
2023-03-11T15:55:20.073Z,101414.44
2023-03-11T15:57:48.168Z,101422.25
2023-03-11T16:00:24.428Z,101421.91
2023-03-11T16:02:51.091Z,101428.47
2023-03-11T16:05:20.806Z,101424.56
2023-03-11T16:07:47.520Z,101415.25
2023-03-11T16:10:17.436Z,101409.31
2023-03-11T16:12:44.373Z,101412.28
2023-03-11T16:15:26.483Z,101400.91
2023-03-11T16:17:53.642Z,101404.13
2023-03-11T16:20:21.477Z,101392.69
2023-03-11T16:22:50.281Z,101396.38
2023-03-11T16:25:19.994Z,101404.84
2023-03-11T16:27:46.454Z,101397.63
2023-03-11T16:30:15.995Z,101403.78
2023-03-11T16:32:43.371Z,101397.78
2023-03-11T16:35:10.918Z,101394.22
2023-03-11T16:37:37.932Z,101387.75
2023-03-11T16:40:07.178Z,101394.25
2023-03-11T16:42:33.672Z,101398.44
2023-03-11T16:45:01.245Z,101393.91
2023-03-11T16:47:28.756Z,101396.13
2023-03-11T16:49:55.301Z,101397.19
2023-03-11T16:52:23.088Z,101396.91
2023-03-11T16:54:50.081Z,101398.22
2023-03-11T16:57:16.582Z,101398.84
2023-03-11T16:59:43.153Z,101404.22
2023-03-11T17:02:11.438Z,101400.91
2023-03-11T17:04:38.564Z,101416.53
2023-03-11T17:07:06.468Z,101415.50
2023-03-11T17:09:33.951Z,101418.22
2023-03-11T17:12:00.476Z,101417.66
2023-03-11T17:14:27.043Z,101430.56
2023-03-11T17:16:53.523Z,101427.59
2023-03-11T17:19:19.962Z,101423.81
2023-03-11T17:21:46.786Z,101430.28
2023-03-11T17:24:13.344Z,101434.72
2023-03-11T17:26:39.904Z,101432.28
2023-03-11T17:29:06.460Z,101438.56
2023-03-11T17:31:33.134Z,101441.09
2023-03-11T17:33:59.752Z,101440.06
2023-03-11T17:36:26.591Z,101456.97
2023-03-11T17:38:54.215Z,101443.84
2023-03-11T17:41:21.861Z,101461.63
2023-03-11T17:43:51.218Z,101462.31
2023-03-11T17:46:19.656Z,101467.41
2023-03-11T17:48:48.539Z,101464.28
2023-03-11T17:51:18.235Z,101455.50
2023-03-11T17:53:46.258Z,101456.47
2023-03-11T17:56:15.097Z,101469.75
2023-03-11T17:58:41.797Z,101471.00
2023-03-11T18:01:12.822Z,101471.13
2023-03-11T18:03:39.300Z,101478.16
2023-03-11T18:06:06.974Z,101485.84
2023-03-11T18:08:35.283Z,101486.19
2023-03-11T18:11:04.542Z,101483.53
2023-03-11T18:13:32.157Z,101488.78
2023-03-11T18:16:04.618Z,101492.53
2023-03-11T18:18:34.394Z,101501.16
2023-03-11T18:21:15.221Z,101505.25
2023-03-11T18:23:42.880Z,101500.31
2023-03-11T18:26:11.960Z,101508.94
2023-03-11T18:28:38.848Z,101515.50
2023-03-11T18:31:17.300Z,101505.88
2023-03-11T18:33:49.062Z,101510.44
2023-03-11T18:36:22.140Z,101497.91
2023-03-11T18:38:49.198Z,101515.22
2023-03-11T18:41:15.752Z,101511.97
2023-03-11T18:43:42.551Z,101502.22
2023-03-11T18:46:11.202Z,101512.38
2023-03-11T18:48:38.112Z,101510.34
2023-03-11T18:51:05.469Z,101503.09
2023-03-11T18:53:31.935Z,101502.47
2023-03-11T18:56:03.917Z,101518.19
2023-03-11T18:58:30.384Z,101515.97
2023-03-11T19:01:08.994Z,101518.09
2023-03-11T19:03:35.798Z,101512.50
2023-03-11T19:06:02.542Z,101503.56
2023-03-11T19:08:29.115Z,101511.06
2023-03-11T19:10:56.388Z,101509.50
2023-03-11T19:13:23.304Z,101507.13
2023-03-11T19:15:49.800Z,101508.44
2023-03-11T19:18:16.349Z,101505.22
2023-03-11T19:20:42.988Z,101505.91
2023-03-11T19:23:09.552Z,101504.47
2023-03-11T19:25:36.296Z,101502.31
2023-03-11T19:28:03.217Z,101500.53
2023-03-11T19:30:29.753Z,101513.00
2023-03-11T19:32:56.398Z,101494.41
2023-03-11T19:35:23.947Z,101491.09
2023-03-11T19:37:50.884Z,101499.78
2023-03-11T19:40:17.779Z,101495.00
2023-03-11T19:42:44.359Z,101505.50
2023-03-11T19:45:11.670Z,101502.47
2023-03-11T19:47:38.554Z,101510.56
2023-03-11T19:50:05.596Z,101508.53
2023-03-11T19:52:34.599Z,101500.19
2023-03-11T19:55:01.172Z,101507.63
2023-03-11T19:57:27.645Z,101515.44
2023-03-11T19:59:55.839Z,101507.31
2023-03-11T20:02:22.393Z,101507.66
2023-03-11T20:04:49.010Z,101512.03
2023-03-11T20:07:15.499Z,101507.66
2023-03-11T20:09:42.030Z,101510.59
2023-03-11T20:12:08.654Z,101509.03
2023-03-11T20:14:35.141Z,101511.38
2023-03-11T20:17:01.603Z,101507.75
2023-03-11T20:19:28.102Z,101517.63
2023-03-11T20:21:54.641Z,101519.00
2023-03-11T20:24:21.233Z,101522.25
2023-03-11T20:26:50.043Z,101509.19
2023-03-11T20:29:17.749Z,101517.38
2023-03-11T20:31:44.665Z,101515.41
2023-03-11T20:34:12.313Z,101520.63
2023-03-11T20:36:39.375Z,101514.97
2023-03-11T20:39:09.417Z,101520.19
2023-03-11T20:41:39.223Z,101516.97
2023-03-11T20:44:08.153Z,101511.25
2023-03-11T20:46:35.370Z,101509.44
2023-03-11T20:49:02.966Z,101512.28
2023-03-11T20:51:30.771Z,101513.34
2023-03-11T20:53:57.302Z,101519.50
2023-03-11T20:56:26.072Z,101513.53
2023-03-11T20:58:55.759Z,101514.56
2023-03-11T21:01:28.200Z,101513.75
2023-03-11T21:03:56.906Z,101518.78
2023-03-11T21:06:30.024Z,101515.81
2023-03-11T21:08:58.832Z,101515.81
2023-03-11T21:11:26.571Z,101502.25
2023-03-11T21:13:54.924Z,101504.03
2023-03-11T21:16:22.531Z,101505.78
2023-03-11T21:18:49.721Z,101507.47
2023-03-11T21:21:17.831Z,101508.53
2023-03-11T21:23:45.144Z,101509.34
2023-03-11T21:26:13.817Z,101513.75
2023-03-11T21:28:42.136Z,101499.97
2023-03-11T21:31:11.429Z,101509.25
2023-03-11T21:33:39.760Z,101500.91
2023-03-11T21:36:08.048Z,101505.78
2023-03-11T21:38:34.983Z,101501.41
2023-03-11T21:41:21.328Z,101501.22
2023-03-11T21:43:48.803Z,101505.50
2023-03-11T21:46:17.908Z,101496.00
2023-03-11T21:48:45.203Z,101490.53
2023-03-11T21:51:12.438Z,101490.75
2023-03-11T21:53:39.182Z,101485.53
2023-03-11T21:56:06.253Z,101501.22
2023-03-11T21:58:33.653Z,101495.34
2023-03-11T22:01:00.481Z,101492.72
2023-03-11T22:03:27.204Z,101488.66
2023-03-11T22:05:58.798Z,101489.72
2023-03-11T22:08:26.288Z,101489.00
2023-03-11T22:10:53.026Z,101484.91
2023-03-11T22:13:19.652Z,101495.16
2023-03-11T22:15:46.903Z,101499.53
2023-03-11T22:18:13.493Z,101490.44
2023-03-11T22:20:41.108Z,101492.75
2023-03-11T22:23:08.272Z,101493.91
2023-03-11T22:25:35.092Z,101487.84
2023-03-11T22:28:01.950Z,101487.00
2023-03-11T22:30:28.579Z,101482.00
2023-03-11T22:32:55.138Z,101489.84
2023-03-11T22:35:21.680Z,101489.84
2023-03-11T22:37:48.171Z,101484.91
2023-03-11T22:40:14.642Z,101486.69
2023-03-11T22:42:41.195Z,101485.84
2023-03-11T22:45:08.287Z,101478.13
2023-03-11T22:47:34.796Z,101468.72
2023-03-11T22:50:01.336Z,101473.94
2023-03-11T22:52:27.853Z,101466.53
2023-03-11T22:54:54.386Z,101464.13
2023-03-11T22:57:20.934Z,101478.22
2023-03-11T22:59:47.423Z,101471.25
2023-03-11T23:02:13.891Z,101461.97
2023-03-11T23:04:40.357Z,101472.50
2023-03-11T23:07:07.130Z,101474.69
2023-03-11T23:09:34.833Z,101470.53
2023-03-11T23:12:03.638Z,101477.09
2023-03-11T23:14:43.668Z,101472.69
2023-03-11T23:17:11.393Z,101463.69
2023-03-11T23:19:37.940Z,101454.41
2023-03-11T23:22:04.561Z,101453.38
2023-03-11T23:24:31.033Z,101456.72
2023-03-11T23:26:57.550Z,101459.00
2023-03-11T23:29:24.038Z,101463.00
2023-03-11T23:31:50.483Z,101454.94
2023-03-11T23:34:17.114Z,101454.00
2023-03-11T23:36:43.617Z,101458.06
2023-03-11T23:39:10.092Z,101455.25
2023-03-11T23:41:37.896Z,101451.78
2023-03-11T23:44:04.854Z,101455.78
2023-03-11T23:46:31.784Z,101448.53
2023-03-11T23:48:58.588Z,101441.34
2023-03-11T23:51:25.081Z,101440.59
2023-03-11T23:53:51.594Z,101436.63
2023-03-11T23:56:18.494Z,101438.19
2023-03-11T23:58:45.659Z,101425.09
